Terminal Aerodrome Forecast
Issued by NWS

Home | Current Version | Previous Version | Text Only | Print | Product List | Glossary On
Versions: 1 2 3 4 5 6 7 8 9 10 11 12 13 14 15
115
FTUS43 KDLH 231727
TAFHYR
TAF
KHYR 231727Z 2318/2418 03008KT P6SM BKN018
     FM231900 04009KT P6SM SCT050
     FM240200 08008KT P6SM SCT150
     FM241300 14012G22KT P6SM BKN150=

USA.gov is the U.S. government's official web portal to all federal, state and local government web resources and services.